Terminal Aerodrome Forecast
Issued by NWS

Home | Current Version | Previous Version | Text Only | Print | Product List | Glossary On
Versions: 1 2 3 4 5 6 7 8 9 10 11 12 13 14 15 16 17 18 19 20 21 22
000
FTUS41 KBUF 270204 AAA
TAFIAG
TAF AMD
KIAG 270204Z 2702/2724 19008KT P6SM BKN250
     FM270400 20012KT P6SM BKN090
     FM270700 20011G17KT P6SM -SHRA OVC050
     FM271200 22015G24KT P6SM OVC030
     FM271500 23017G26KT P6SM BKN250=

USA.gov is the U.S. government's official web portal to all federal, state and local government web resources and services.